x

South Bass Island, Oh (sbio1) Weather Station

12:00pm - Tue 27th Sep 2016 All times are CDT. -5 hours from GMT.

  • Wind
    34mph, 39mph gusts
  • Air Temp 67°f
  • Sea Pressure 1008.5mb
  • South Bass Island, Oh
  • South Bass Island, Oh

More Historic Weather Station data

Upgrade to MSW Pro to gain access to the past 30 days of data for over 8000 Wavebouys and Weather Stations around the globe.

Join Pro

Comparision Forecast

View Surf forecast
   
Tue 09/27 12:00pm 34 39 mph 1008.5mb 67f
11:00am 20 22 mph 1009.4mb 65f
10:00am 22 24 mph 1009.8mb 62f
9:00am 24 28 mph 1010.2mb 59f
8:00am 23 29 mph 1010.5mb 58f
7:00am 11 21 mph 1010.8mb 58f
6:00am 15 22 mph 1010.9mb 57f
5:00am 22 24 mph 1011.1mb 61f
4:00am 23 25 mph 1011.3mb 61f
3:00am 23 28 mph 1011.8mb 61f
2:00am 23 25 mph 1012.3mb 61f
1:00am 23 26 mph 1012.6mb 62f
12:00am 22 24 mph 1012.9mb 63f
Mon 09/26 11:00pm 18 21 mph 1013.2mb 64f
10:00pm 18 20 mph 1013.5mb 65f
9:00pm 17 20 mph 1013.7mb 66f
8:00pm 18 21 mph 1013.5mb 67f
7:00pm 22 26 mph 1013.1mb 67f
6:00pm 23 25 mph 1012.7mb 68f
5:00pm 20 22 mph 1012.4mb 67f
4:00pm 25 28 mph 1012.4mb 67f
3:00pm 18 22 mph 1012.9mb 66f
2:00pm 22 25 mph 1013.2mb 65f
1:00pm 24 26 mph 1013.5mb 64f
12:00pm 26 30 mph 1013.4mb 64f
11:00am 17 20 mph 1012.9mb 63f
10:00am 17 20 mph 1013.6mb 63f
9:00am 23 25 mph 1014.2mb 66f
8:00am 31 34 mph 1012mb 67f
7:00am 16 20 mph 1011.4mb 69f
6:00am 13 16 mph 1010.9mb 71f
5:00am 15 21 mph 1011.7mb 70f
4:00am 23 25 mph 1011.3mb 70f
3:00am 21 23 mph 1012mb 71f
2:00am 15 18 mph 1013.2mb 69f
1:00am 13 17 mph 1014.4mb 69f
12:00am 14 17 mph 1014.9mb 69f
Sun 09/25 11:00pm 13 16 mph 1015.7mb 71f
10:00pm 15 17 mph 1015.8mb 71f
9:00pm 14 16 mph 1016.6mb 70f
8:00pm 15 17 mph 1017mb 69f
7:00pm 15 17 mph 1017mb 69f
6:00pm 16 21 mph 1017.5mb 69f
5:00pm 8 13 mph 1018.2mb 69f
4:00pm 7 10 mph 1018.9mb 69f
3:00pm 10 14 mph 1019.5mb 69f
2:00pm 9 13 mph 1020.2mb 69f
1:00pm 8 10 mph 1020.7mb 68f
12:00pm 8 11 mph 1021.6mb 67f
11:00am 13 15 mph 1021.6mb 65f
10:00am 13 14 mph 1022.3mb 64f
9:00am 13 15 mph 1022.4mb 64f
8:00am 15 17 mph 1022.4mb 64f
7:00am 15 20 mph 1022.3mb 64f
6:00am 16 20 mph 1022mb 63f
5:00am 21 23 mph 1021.9mb 63f
4:00am 18 22 mph 1022mb 64f
3:00am 16 21 mph 1022.2mb 64f
2:00am 15 17 mph 1022.6mb 64f
1:00am 16 18 mph 1022.6mb 65f
12:00am 9 17 mph 1022.5mb 65f
Sat 09/24 11:00pm 9 14 mph 1022.3mb 66f
10:00pm 8 11 mph 1022.2mb 65f
9:00pm 9 14 mph 1022.3mb 65f
8:00pm 6 9 mph 1022.4mb 65f
7:00pm 6 8 mph 1022.3mb 64f
6:00pm 6 10 mph 1022.2mb 66f
5:00pm 7 9 mph 1022.1mb 67f
4:00pm 7 10 mph 1022.3mb 67f
3:00pm 9 14 mph 1022.7mb 68f
2:00pm 13 16 mph 1022.8mb 69f
1:00pm 11 16 mph 1023mb 69f
12:00pm 13 18 mph 1023.4mb 68f
11:00am 11 16 mph 1023.3mb 68f
10:00am 7 13 mph 1023.4mb 67f
9:00am 7 10 mph 1023mb 65f
8:00am 9 15 mph 1022.8mb 64f
7:00am 6 9 mph 1022.5mb 62f
6:00am 8 13 mph 1021.7mb 63f
5:00am 6 9 mph 1020.9mb 65f
4:00am 5 9 mph 1020.3mb 66f
3:00am 7 10 mph 1020.3mb 66f
2:00am 13 18 mph 1020.6mb 65f
1:00am 11 23 mph 1020.5mb 65f
12:00am 13 18 mph 1020.1mb 66f
Fri 09/23 11:00pm 11 16 mph 1019.9mb 66f
10:00pm 7 13 mph 1019.3mb 68f
9:00pm 7 11 mph 1019.2mb 68f
8:00pm 9 17 mph 1018.7mb 68f
7:00pm 10 17 mph 1018.2mb 69f